sensor_id;sensor_type;location;lat;lon;timestamp;temperature;humidity
10314;DHT22;5202;49.138;10.090;2022-09-04T00:00:09;13.90;99.90
10314;DHT22;5202;49.138;10.090;2022-09-04T00:03:11;13.90;99.90
10314;DHT22;5202;49.138;10.090;2022-09-04T00:05:47;14.00;99.90
10314;DHT22;5202;49.138;10.090;2022-09-04T00:08:31;14.00;99.90
10314;DHT22;5202;49.138;10.090;2022-09-04T00:11:11;13.90;99.90
10314;DHT22;5202;49.138;10.090;2022-09-04T00:13:45;13.90;99.90
10314;DHT22;5202;49.138;10.090;2022-09-04T00:16:19;13.90;99.90
10314;DHT22;5202;49.138;10.090;2022-09-04T00:18:54;14.00;99.90
10314;DHT22;5202;49.138;10.090;2022-09-04T00:21:29;13.90;99.90
10314;DHT22;5202;49.138;10.090;2022-09-04T00:24:04;13.90;99.90
10314;DHT22;5202;49.138;10.090;2022-09-04T00:26:41;13.90;99.90
10314;DHT22;5202;49.138;10.090;2022-09-04T00:29:21;14.00;99.90
10314;DHT22;5202;49.138;10.090;2022-09-04T00:31:59;14.00;99.90
10314;DHT22;5202;49.138;10.090;2022-09-04T00:34:40;13.90;99.90
10314;DHT22;5202;49.138;10.090;2022-09-04T00:37:22;13.90;99.90
10314;DHT22;5202;49.138;10.090;2022-09-04T00:39:56;14.00;99.90
10314;DHT22;5202;49.138;10.090;2022-09-04T00:46:08;14.00;99.90
10314;DHT22;5202;49.138;10.090;2022-09-04T00:52:12;14.00;99.90
10314;DHT22;5202;49.138;10.090;2022-09-04T00:55:10;14.00;99.90
10314;DHT22;5202;49.138;10.090;2022-09-04T00:58:04;14.00;99.90
10314;DHT22;5202;49.138;10.090;2022-09-04T01:00:37;14.00;99.90
10314;DHT22;5202;49.138;10.090;2022-09-04T01:03:27;13.90;99.90
10314;DHT22;5202;49.138;10.090;2022-09-04T01:06:20;13.90;99.90
10314;DHT22;5202;49.138;10.090;2022-09-04T01:09:25;13.90;99.90
10314;DHT22;5202;49.138;10.090;2022-09-04T01:12:10;13.90;99.90
10314;DHT22;5202;49.138;10.090;2022-09-04T01:14:51;13.90;99.90
10314;DHT22;5202;49.138;10.090;2022-09-04T01:17:27;13.90;99.90
10314;DHT22;5202;49.138;10.090;2022-09-04T01:20:06;13.80;99.90
10314;DHT22;5202;49.138;10.090;2022-09-04T01:23:01;13.80;99.90
10314;DHT22;5202;49.138;10.090;2022-09-04T01:26:05;13.80;99.90
10314;DHT22;5202;49.138;10.090;2022-09-04T01:28:43;13.90;99.90
10314;DHT22;5202;49.138;10.090;2022-09-04T01:31:23;13.90;99.90
10314;DHT22;5202;49.138;10.090;2022-09-04T01:34:04;13.90;99.90
10314;DHT22;5202;49.138;10.090;2022-09-04T01:36:44;14.00;99.90
10314;DHT22;5202;49.138;10.090;2022-09-04T01:39:18;13.90;99.90
10314;DHT22;5202;49.138;10.090;2022-09-04T01:41:55;13.90;99.90
10314;DHT22;5202;49.138;10.090;2022-09-04T01:44:26;13.90;99.90
10314;DHT22;5202;49.138;10.090;2022-09-04T01:47:04;13.80;99.90
10314;DHT22;5202;49.138;10.090;2022-09-04T01:49:39;13.80;99.90
10314;DHT22;5202;49.138;10.090;2022-09-04T01:52:33;13.70;99.90
10314;DHT22;5202;49.138;10.090;2022-09-04T01:55:12;13.70;99.90
10314;DHT22;5202;49.138;10.090;2022-09-04T01:57:56;13.70;99.90
10314;DHT22;5202;49.138;10.090;2022-09-04T02:00:33;13.70;99.90
10314;DHT22;5202;49.138;10.090;2022-09-04T02:03:11;13.70;99.90
10314;DHT22;5202;49.138;10.090;2022-09-04T02:05:56;13.70;99.90
10314;DHT22;5202;49.138;10.090;2022-09-04T02:08:38;13.60;99.90
10314;DHT22;5202;49.138;10.090;2022-09-04T02:11:18;13.60;99.90
10314;DHT22;5202;49.138;10.090;2022-09-04T02:14:08;13.60;99.90
10314;DHT22;5202;49.138;10.090;2022-09-04T02:16:58;13.60;99.90
10314;DHT22;5202;49.138;10.090;2022-09-04T02:19:40;13.60;99.90
10314;DHT22;5202;49.138;10.090;2022-09-04T02:22:25;13.60;99.90
10314;DHT22;5202;49.138;10.090;2022-09-04T02:25:03;13.50;99.90
10314;DHT22;5202;49.138;10.090;2022-09-04T02:27:40;13.50;99.90
10314;DHT22;5202;49.138;10.090;2022-09-04T02:30:16;13.50;99.90
10314;DHT22;5202;49.138;10.090;2022-09-04T02:32:52;13.40;99.90
10314;DHT22;5202;49.138;10.090;2022-09-04T02:35:29;13.40;99.90
10314;DHT22;5202;49.138;10.090;2022-09-04T02:38:10;13.30;99.90
10314;DHT22;5202;49.138;10.090;2022-09-04T02:40:49;13.30;99.90
10314;DHT22;5202;49.138;10.090;2022-09-04T02:43:39;13.40;99.90
10314;DHT22;5202;49.138;10.090;2022-09-04T02:46:22;13.40;99.90
10314;DHT22;5202;49.138;10.090;2022-09-04T02:49:02;13.50;99.90
10314;DHT22;5202;49.138;10.090;2022-09-04T02:51:48;13.40;99.90
10314;DHT22;5202;49.138;10.090;2022-09-04T02:54:34;13.40;99.90
10314;DHT22;5202;49.138;10.090;2022-09-04T02:57:20;13.30;99.90
10314;DHT22;5202;49.138;10.090;2022-09-04T03:00:00;13.30;99.90
10314;DHT22;5202;49.138;10.090;2022-09-04T03:02:41;13.20;99.90
10314;DHT22;5202;49.138;10.090;2022-09-04T03:05:18;13.10;99.90
10314;DHT22;5202;49.138;10.090;2022-09-04T03:07:54;13.00;99.90
10314;DHT22;5202;49.138;10.090;2022-09-04T03:10:30;13.00;99.90
10314;DHT22;5202;49.138;10.090;2022-09-04T03:13:04;12.90;99.90
10314;DHT22;5202;49.138;10.090;2022-09-04T03:15:39;12.90;99.90
10314;DHT22;5202;49.138;10.090;2022-09-04T03:18:18;12.90;99.90
10314;DHT22;5202;49.138;10.090;2022-09-04T03:20:59;12.90;99.90
10314;DHT22;5202;49.138;10.090;2022-09-04T03:23:38;12.90;99.90
10314;DHT22;5202;49.138;10.090;2022-09-04T03:26:17;12.90;99.90
10314;DHT22;5202;49.138;10.090;2022-09-04T03:28:54;12.90;99.90
10314;DHT22;5202;49.138;10.090;2022-09-04T03:31:31;12.80;99.90
10314;DHT22;5202;49.138;10.090;2022-09-04T03:34:14;12.80;99.90
10314;DHT22;5202;49.138;10.090;2022-09-04T03:37:12;12.80;99.90
10314;DHT22;5202;49.138;10.090;2022-09-04T03:39:57;12.80;99.90
10314;DHT22;5202;49.138;10.090;2022-09-04T03:42:39;12.80;99.90
10314;DHT22;5202;49.138;10.090;2022-09-04T03:45:20;12.80;99.90
10314;DHT22;5202;49.138;10.090;2022-09-04T03:48:08;12.70;99.90
10314;DHT22;5202;49.138;10.090;2022-09-04T03:50:49;12.60;99.90
10314;DHT22;5202;49.138;10.090;2022-09-04T03:53:29;12.50;99.90
10314;DHT22;5202;49.138;10.090;2022-09-04T03:56:18;12.40;99.90
10314;DHT22;5202;49.138;10.090;2022-09-04T03:59:01;12.40;99.90
10314;DHT22;5202;49.138;10.090;2022-09-04T04:01:40;12.40;99.90
10314;DHT22;5202;49.138;10.090;2022-09-04T04:04:36;12.40;99.90
10314;DHT22;5202;49.138;10.090;2022-09-04T04:07:23;12.40;99.90
10314;DHT22;5202;49.138;10.090;2022-09-04T04:10:08;12.40;99.90
10314;DHT22;5202;49.138;10.090;2022-09-04T04:12:55;12.30;99.90
10314;DHT22;5202;49.138;10.090;2022-09-04T04:15:43;12.30;99.90
10314;DHT22;5202;49.138;10.090;2022-09-04T04:18:32;12.30;99.90
10314;DHT22;5202;49.138;10.090;2022-09-04T04:21:09;12.30;99.90
10314;DHT22;5202;49.138;10.090;2022-09-04T04:23:55;12.30;99.90
10314;DHT22;5202;49.138;10.090;2022-09-04T04:26:43;12.30;99.90
10314;DHT22;5202;49.138;10.090;2022-09-04T04:30:04;12.30;99.90
10314;DHT22;5202;49.138;10.090;2022-09-04T04:32:59;12.30;99.90
10314;DHT22;5202;49.138;10.090;2022-09-04T04:35:53;12.30;99.90
10314;DHT22;5202;49.138;10.090;2022-09-04T04:38:35;12.20;99.90
10314;DHT22;5202;49.138;10.090;2022-09-04T04:41:26;12.10;99.90
10314;DHT22;5202;49.138;10.090;2022-09-04T04:44:24;12.00;99.90
10314;DHT22;5202;49.138;10.090;2022-09-04T04:47:32;12.00;99.90
10314;DHT22;5202;49.138;10.090;2022-09-04T04:50:12;12.00;99.90
10314;DHT22;5202;49.138;10.090;2022-09-04T04:52:55;12.00;99.90
10314;DHT22;5202;49.138;10.090;2022-09-04T04:55:36;12.00;99.90
10314;DHT22;5202;49.138;10.090;2022-09-04T04:58:28;12.10;99.90
10314;DHT22;5202;49.138;10.090;2022-09-04T05:01:10;12.10;99.90
10314;DHT22;5202;49.138;10.090;2022-09-04T05:03:53;12.10;99.90
10314;DHT22;5202;49.138;10.090;2022-09-04T05:06:35;12.10;99.90
10314;DHT22;5202;49.138;10.090;2022-09-04T05:09:13;12.20;99.90
10314;DHT22;5202;49.138;10.090;2022-09-04T05:11:52;12.10;99.90
10314;DHT22;5202;49.138;10.090;2022-09-04T05:14:31;12.10;99.90
10314;DHT22;5202;49.138;10.090;2022-09-04T05:17:12;12.10;99.90
10314;DHT22;5202;49.138;10.090;2022-09-04T05:19:51;12.00;99.90
10314;DHT22;5202;49.138;10.090;2022-09-04T05:22:39;12.00;99.90
10314;DHT22;5202;49.138;10.090;2022-09-04T05:25:15;12.10;99.90
10314;DHT22;5202;49.138;10.090;2022-09-04T05:27:56;12.10;99.90
10314;DHT22;5202;49.138;10.090;2022-09-04T05:30:38;12.20;99.90
10314;DHT22;5202;49.138;10.090;2022-09-04T05:33:16;12.30;99.90
10314;DHT22;5202;49.138;10.090;2022-09-04T05:35:54;12.30;99.90
10314;DHT22;5202;49.138;10.090;2022-09-04T05:38:31;12.40;99.90
10314;DHT22;5202;49.138;10.090;2022-09-04T05:41:05;12.50;99.90
10314;DHT22;5202;49.138;10.090;2022-09-04T05:43:49;12.50;99.90
10314;DHT22;5202;49.138;10.090;2022-09-04T05:46:40;12.60;99.90
10314;DHT22;5202;49.138;10.090;2022-09-04T05:49:29;12.70;99.90
10314;DHT22;5202;49.138;10.090;2022-09-04T05:52:34;12.80;99.90
10314;DHT22;5202;49.138;10.090;2022-09-04T05:55:34;13.00;99.90
10314;DHT22;5202;49.138;10.090;2022-09-04T05:58:23;13.10;99.90
10314;DHT22;5202;49.138;10.090;2022-09-04T06:01:10;13.30;99.90
10314;DHT22;5202;49.138;10.090;2022-09-04T06:04:07;13.40;99.90
10314;DHT22;5202;49.138;10.090;2022-09-04T06:06:57;13.50;99.90
10314;DHT22;5202;49.138;10.090;2022-09-04T06:09:44;13.60;99.90
10314;DHT22;5202;49.138;10.090;2022-09-04T06:12:55;13.70;99.90
10314;DHT22;5202;49.138;10.090;2022-09-04T06:15:38;13.90;99.90
10314;DHT22;5202;49.138;10.090;2022-09-04T06:18:23;14.00;99.90
10314;DHT22;5202;49.138;10.090;2022-09-04T06:21:34;14.10;99.90
10314;DHT22;5202;49.138;10.090;2022-09-04T06:24:30;14.30;99.90
10314;DHT22;5202;49.138;10.090;2022-09-04T06:27:23;14.40;99.90
10314;DHT22;5202;49.138;10.090;2022-09-04T06:30:04;14.60;99.90
10314;DHT22;5202;49.138;10.090;2022-09-04T06:32:53;14.70;99.90
10314;DHT22;5202;49.138;10.090;2022-09-04T06:35:50;14.80;99.90
10314;DHT22;5202;49.138;10.090;2022-09-04T06:38:41;14.90;99.90
10314;DHT22;5202;49.138;10.090;2022-09-04T06:41:43;15.10;99.90
10314;DHT22;5202;49.138;10.090;2022-09-04T06:44:32;15.30;99.90
10314;DHT22;5202;49.138;10.090;2022-09-04T06:47:18;15.40;99.90
10314;DHT22;5202;49.138;10.090;2022-09-04T06:50:04;15.60;99.90
10314;DHT22;5202;49.138;10.090;2022-09-04T06:52:46;15.80;99.90
10314;DHT22;5202;49.138;10.090;2022-09-04T06:55:32;15.90;99.90
10314;DHT22;5202;49.138;10.090;2022-09-04T06:58:35;16.00;99.90
10314;DHT22;5202;49.138;10.090;2022-09-04T07:01:15;16.10;99.90
10314;DHT22;5202;49.138;10.090;2022-09-04T07:04:00;16.30;99.90
10314;DHT22;5202;49.138;10.090;2022-09-04T07:06:51;16.40;99.90
10314;DHT22;5202;49.138;10.090;2022-09-04T07:09:29;16.50;99.90
10314;DHT22;5202;49.138;10.090;2022-09-04T07:12:25;16.60;99.90
10314;DHT22;5202;49.138;10.090;2022-09-04T07:18:22;16.70;99.90
10314;DHT22;5202;49.138;10.090;2022-09-04T07:21:05;16.80;99.90
10314;DHT22;5202;49.138;10.090;2022-09-04T07:23:41;16.80;99.90
10314;DHT22;5202;49.138;10.090;2022-09-04T07:26:21;17.00;99.90
10314;DHT22;5202;49.138;10.090;2022-09-04T07:29:08;17.10;99.90
10314;DHT22;5202;49.138;10.090;2022-09-04T07:31:46;17.20;99.90
10314;DHT22;5202;49.138;10.090;2022-09-04T07:34:22;17.40;99.90
10314;DHT22;5202;49.138;10.090;2022-09-04T07:36:58;17.50;99.90
10314;DHT22;5202;49.138;10.090;2022-09-04T07:39:34;17.70;99.90
10314;DHT22;5202;49.138;10.090;2022-09-04T07:42:08;17.90;99.90
10314;DHT22;5202;49.138;10.090;2022-09-04T07:44:46;18.00;99.90
10314;DHT22;5202;49.138;10.090;2022-09-04T07:47:30;18.10;99.90
10314;DHT22;5202;49.138;10.090;2022-09-04T07:50:08;18.30;99.90
10314;DHT22;5202;49.138;10.090;2022-09-04T07:52:53;18.50;99.90
10314;DHT22;5202;49.138;10.090;2022-09-04T07:55:37;18.50;99.90
10314;DHT22;5202;49.138;10.090;2022-09-04T07:58:25;18.60;99.90
10314;DHT22;5202;49.138;10.090;2022-09-04T08:01:28;18.80;99.90
10314;DHT22;5202;49.138;10.090;2022-09-04T08:04:22;18.90;99.90
10314;DHT22;5202;49.138;10.090;2022-09-04T08:07:00;18.90;99.90
10314;DHT22;5202;49.138;10.090;2022-09-04T08:09:53;18.90;99.90
10314;DHT22;5202;49.138;10.090;2022-09-04T08:15:41;19.10;99.90
10314;DHT22;5202;49.138;10.090;2022-09-04T08:18:33;19.20;99.90
10314;DHT22;5202;49.138;10.090;2022-09-04T08:21:16;19.30;99.90
10314;DHT22;5202;49.138;10.090;2022-09-04T08:27:06;19.60;99.90
10314;DHT22;5202;49.138;10.090;2022-09-04T08:29:48;19.80;99.90
10314;DHT22;5202;49.138;10.090;2022-09-04T08:32:33;19.90;99.90
10314;DHT22;5202;49.138;10.090;2022-09-04T08:35:21;20.00;99.90
10314;DHT22;5202;49.138;10.090;2022-09-04T08:38:16;20.20;99.90
10314;DHT22;5202;49.138;10.090;2022-09-04T08:41:13;20.30;99.90
10314;DHT22;5202;49.138;10.090;2022-09-04T08:54:26;20.90;98.80
10314;DHT22;5202;49.138;10.090;2022-09-04T08:57:42;21.20;99.10
10314;DHT22;5202;49.138;10.090;2022-09-04T09:00:30;21.50;99.00
10314;DHT22;5202;49.138;10.090;2022-09-04T09:09:49;22.20;97.80
10314;DHT22;5202;49.138;10.090;2022-09-04T09:12:55;22.30;97.50
10314;DHT22;5202;49.138;10.090;2022-09-04T09:15:54;22.60;97.30
10314;DHT22;5202;49.138;10.090;2022-09-04T09:18:35;22.60;96.80
10314;DHT22;5202;49.138;10.090;2022-09-04T09:21:09;22.60;95.80
10314;DHT22;5202;49.138;10.090;2022-09-04T09:23:58;22.00;95.80
10314;DHT22;5202;49.138;10.090;2022-09-04T09:26:41;21.70;96.60
10314;DHT22;5202;49.138;10.090;2022-09-04T09:29:50;21.60;96.80
10314;DHT22;5202;49.138;10.090;2022-09-04T09:39:41;21.40;96.30
10314;DHT22;5202;49.138;10.090;2022-09-04T09:42:50;21.70;96.20
10314;DHT22;5202;49.138;10.090;2022-09-04T09:45:49;22.10;95.50
10314;DHT22;5202;49.138;10.090;2022-09-04T09:49:02;22.60;96.00
10314;DHT22;5202;49.138;10.090;2022-09-04T09:56:10;23.30;93.50
10314;DHT22;5202;49.138;10.090;2022-09-04T10:02:29;23.60;93.60
10314;DHT22;5202;49.138;10.090;2022-09-04T10:06:00;23.50;93.00
10314;DHT22;5202;49.138;10.090;2022-09-04T10:09:09;23.50;93.00
10314;DHT22;5202;49.138;10.090;2022-09-04T10:12:28;23.30;91.70
10314;DHT22;5202;49.138;10.090;2022-09-04T10:15:33;23.10;92.40
10314;DHT22;5202;49.138;10.090;2022-09-04T10:18:50;22.90;92.80
10314;DHT22;5202;49.138;10.090;2022-09-04T10:25:22;22.70;92.30
10314;DHT22;5202;49.138;10.090;2022-09-04T10:28:26;22.60;90.90
10314;DHT22;5202;49.138;10.090;2022-09-04T10:31:50;22.60;91.30
10314;DHT22;5202;49.138;10.090;2022-09-04T10:34:40;22.70;91.60
10314;DHT22;5202;49.138;10.090;2022-09-04T10:41:30;22.70;92.80
10314;DHT22;5202;49.138;10.090;2022-09-04T10:44:39;23.00;93.00
10314;DHT22;5202;49.138;10.090;2022-09-04T10:47:35;23.30;91.40
10314;DHT22;5202;49.138;10.090;2022-09-04T10:50:22;23.30;91.90
10314;DHT22;5202;49.138;10.090;2022-09-04T10:53:35;23.30;92.20
10314;DHT22;5202;49.138;10.090;2022-09-04T10:56:24;23.20;92.10
10314;DHT22;5202;49.138;10.090;2022-09-04T10:59:09;23.20;92.40
10314;DHT22;5202;49.138;10.090;2022-09-04T11:02:02;23.20;92.50
10314;DHT22;5202;49.138;10.090;2022-09-04T11:04:58;23.20;92.40
10314;DHT22;5202;49.138;10.090;2022-09-04T11:07:56;23.30;92.00
10314;DHT22;5202;49.138;10.090;2022-09-04T11:11:05;23.20;90.80
10314;DHT22;5202;49.138;10.090;2022-09-04T11:20:30;22.70;92.20
10314;DHT22;5202;49.138;10.090;2022-09-04T11:23:58;22.60;92.40
10314;DHT22;5202;49.138;10.090;2022-09-04T11:27:16;22.50;92.20
10314;DHT22;5202;49.138;10.090;2022-09-04T11:30:11;22.60;92.40
10314;DHT22;5202;49.138;10.090;2022-09-04T11:33:08;22.70;91.90
10314;DHT22;5202;49.138;10.090;2022-09-04T11:36:20;22.60;92.00
10314;DHT22;5202;49.138;10.090;2022-09-04T11:42:26;22.50;92.30
10314;DHT22;5202;49.138;10.090;2022-09-04T11:48:45;22.30;92.00
10314;DHT22;5202;49.138;10.090;2022-09-04T11:52:00;22.50;92.10
10314;DHT22;5202;49.138;10.090;2022-09-04T11:54:58;22.50;91.80
10314;DHT22;5202;49.138;10.090;2022-09-04T12:00:49;22.90;91.10
10314;DHT22;5202;49.138;10.090;2022-09-04T12:03:47;23.10;91.50
10314;DHT22;5202;49.138;10.090;2022-09-04T12:06:40;23.30;91.20
10314;DHT22;5202;49.138;10.090;2022-09-04T12:15:41;23.90;90.60
10314;DHT22;5202;49.138;10.090;2022-09-04T12:21:41;23.60;89.30
10314;DHT22;5202;49.138;10.090;2022-09-04T12:24:34;23.50;89.40
10314;DHT22;5202;49.138;10.090;2022-09-04T12:27:36;23.70;87.70
10314;DHT22;5202;49.138;10.090;2022-09-04T12:30:18;24.00;87.60
10314;DHT22;5202;49.138;10.090;2022-09-04T12:33:13;24.30;84.30
10314;DHT22;5202;49.138;10.090;2022-09-04T12:36:05;24.50;84.60
10314;DHT22;5202;49.138;10.090;2022-09-04T12:42:24;25.60;81.70
10314;DHT22;5202;49.138;10.090;2022-09-04T12:45:04;25.50;79.40
10314;DHT22;5202;49.138;10.090;2022-09-04T12:47:46;25.30;80.00
10314;DHT22;5202;49.138;10.090;2022-09-04T12:50:28;25.30;79.00
10314;DHT22;5202;49.138;10.090;2022-09-04T12:56:27;24.40;79.70
10314;DHT22;5202;49.138;10.090;2022-09-04T12:59:28;24.30;80.60
10314;DHT22;5202;49.138;10.090;2022-09-04T13:02:08;24.50;81.20
10314;DHT22;5202;49.138;10.090;2022-09-04T13:04:49;24.60;81.10
10314;DHT22;5202;49.138;10.090;2022-09-04T13:07:32;24.50;80.50
10314;DHT22;5202;49.138;10.090;2022-09-04T13:10:20;24.80;79.60
10314;DHT22;5202;49.138;10.090;2022-09-04T13:13:03;25.20;80.80
10314;DHT22;5202;49.138;10.090;2022-09-04T13:15:40;25.80;80.60
10314;DHT22;5202;49.138;10.090;2022-09-04T13:18:24;26.30;77.20
10314;DHT22;5202;49.138;10.090;2022-09-04T13:21:07;26.50;75.80
10314;DHT22;5202;49.138;10.090;2022-09-04T13:23:58;26.30;77.10
10314;DHT22;5202;49.138;10.090;2022-09-04T13:26:53;26.70;76.30
10314;DHT22;5202;49.138;10.090;2022-09-04T13:29:42;27.30;74.60
10314;DHT22;5202;49.138;10.090;2022-09-04T13:32:33;27.70;73.40
10314;DHT22;5202;49.138;10.090;2022-09-04T13:35:18;27.30;71.40
10314;DHT22;5202;49.138;10.090;2022-09-04T13:38:04;26.60;72.50
10314;DHT22;5202;49.138;10.090;2022-09-04T13:41:07;26.40;72.80
10314;DHT22;5202;49.138;10.090;2022-09-04T13:44:12;26.00;73.30
10314;DHT22;5202;49.138;10.090;2022-09-04T13:47:00;25.70;73.50
10314;DHT22;5202;49.138;10.090;2022-09-04T13:49:35;25.40;73.60
10314;DHT22;5202;49.138;10.090;2022-09-04T13:52:09;25.20;73.90
10314;DHT22;5202;49.138;10.090;2022-09-04T13:54:45;25.20;74.80
10314;DHT22;5202;49.138;10.090;2022-09-04T13:57:20;25.30;75.10
10314;DHT22;5202;49.138;10.090;2022-09-04T13:59:52;25.40;75.30
10314;DHT22;5202;49.138;10.090;2022-09-04T14:02:27;25.50;76.10
10314;DHT22;5202;49.138;10.090;2022-09-04T14:05:06;25.60;74.50
10314;DHT22;5202;49.138;10.090;2022-09-04T14:07:46;26.20;74.30
10314;DHT22;5202;49.138;10.090;2022-09-04T14:10:19;26.50;72.00
10314;DHT22;5202;49.138;10.090;2022-09-04T14:13:03;26.20;72.00
10314;DHT22;5202;49.138;10.090;2022-09-04T14:16:00;26.10;71.70
10314;DHT22;5202;49.138;10.090;2022-09-04T14:18:51;26.00;72.00
10314;DHT22;5202;49.138;10.090;2022-09-04T14:21:41;25.60;71.90
10314;DHT22;5202;49.138;10.090;2022-09-04T14:24:21;25.30;72.90
10314;DHT22;5202;49.138;10.090;2022-09-04T14:26:58;25.20;73.50
10314;DHT22;5202;49.138;10.090;2022-09-04T14:29:37;25.30;73.90
10314;DHT22;5202;49.138;10.090;2022-09-04T14:32:18;25.40;73.70
10314;DHT22;5202;49.138;10.090;2022-09-04T14:34:56;25.20;73.00
10314;DHT22;5202;49.138;10.090;2022-09-04T14:37:45;25.00;73.70
10314;DHT22;5202;49.138;10.090;2022-09-04T14:40:29;25.00;74.00
10314;DHT22;5202;49.138;10.090;2022-09-04T14:43:06;24.80;74.30
10314;DHT22;5202;49.138;10.090;2022-09-04T14:45:59;24.90;74.50
10314;DHT22;5202;49.138;10.090;2022-09-04T14:48:32;24.70;75.00
10314;DHT22;5202;49.138;10.090;2022-09-04T14:51:15;24.60;75.50
10314;DHT22;5202;49.138;10.090;2022-09-04T14:53:46;24.60;75.00
10314;DHT22;5202;49.138;10.090;2022-09-04T14:56:24;24.60;75.00
10314;DHT22;5202;49.138;10.090;2022-09-04T14:59:01;24.50;75.80
10314;DHT22;5202;49.138;10.090;2022-09-04T15:01:37;24.40;75.50
10314;DHT22;5202;49.138;10.090;2022-09-04T15:04:25;24.40;75.40
10314;DHT22;5202;49.138;10.090;2022-09-04T15:07:27;24.30;75.80
10314;DHT22;5202;49.138;10.090;2022-09-04T15:10:19;24.30;75.60
10314;DHT22;5202;49.138;10.090;2022-09-04T15:13:14;24.30;75.50
10314;DHT22;5202;49.138;10.090;2022-09-04T15:15:51;24.60;75.80
10314;DHT22;5202;49.138;10.090;2022-09-04T15:18:26;24.90;75.60
10314;DHT22;5202;49.138;10.090;2022-09-04T15:21:00;25.20;74.70
10314;DHT22;5202;49.138;10.090;2022-09-04T15:23:37;25.70;74.60
10314;DHT22;5202;49.138;10.090;2022-09-04T15:26:10;26.20;73.70
10314;DHT22;5202;49.138;10.090;2022-09-04T15:28:48;26.60;71.80
10314;DHT22;5202;49.138;10.090;2022-09-04T15:31:27;26.90;70.80
10314;DHT22;5202;49.138;10.090;2022-09-04T15:33:59;27.10;70.20
10314;DHT22;5202;49.138;10.090;2022-09-04T15:36:30;27.40;70.00
10314;DHT22;5202;49.138;10.090;2022-09-04T15:39:02;27.60;68.20
10314;DHT22;5202;49.138;10.090;2022-09-04T15:41:36;27.30;68.30
10314;DHT22;5202;49.138;10.090;2022-09-04T15:44:13;27.60;69.20
10314;DHT22;5202;49.138;10.090;2022-09-04T15:46:56;27.70;67.40
10314;DHT22;5202;49.138;10.090;2022-09-04T15:49:39;27.80;68.20
10314;DHT22;5202;49.138;10.090;2022-09-04T15:52:28;27.30;67.30
10314;DHT22;5202;49.138;10.090;2022-09-04T15:55:07;26.80;68.60
10314;DHT22;5202;49.138;10.090;2022-09-04T15:57:47;26.30;69.60
10314;DHT22;5202;49.138;10.090;2022-09-04T16:00:23;26.00;71.10
10314;DHT22;5202;49.138;10.090;2022-09-04T16:02:59;25.80;71.70
10314;DHT22;5202;49.138;10.090;2022-09-04T16:05:38;25.70;72.10
10314;DHT22;5202;49.138;10.090;2022-09-04T16:08:18;25.70;72.70
10314;DHT22;5202;49.138;10.090;2022-09-04T16:10:55;25.70;72.60
10314;DHT22;5202;49.138;10.090;2022-09-04T16:13:42;25.50;72.70
10314;DHT22;5202;49.138;10.090;2022-09-04T16:16:16;25.50;74.00
10314;DHT22;5202;49.138;10.090;2022-09-04T16:18:56;25.50;74.80
10314;DHT22;5202;49.138;10.090;2022-09-04T16:21:38;25.50;75.20
10314;DHT22;5202;49.138;10.090;2022-09-04T16:24:13;25.50;75.50
10314;DHT22;5202;49.138;10.090;2022-09-04T16:26:47;25.50;75.80
10314;DHT22;5202;49.138;10.090;2022-09-04T16:29:27;25.50;76.20
10314;DHT22;5202;49.138;10.090;2022-09-04T16:32:05;25.50;76.60
10314;DHT22;5202;49.138;10.090;2022-09-04T16:34:44;25.40;76.30
10314;DHT22;5202;49.138;10.090;2022-09-04T16:37:17;25.30;76.40
10314;DHT22;5202;49.138;10.090;2022-09-04T16:39:58;25.30;76.90
10314;DHT22;5202;49.138;10.090;2022-09-04T16:42:38;25.40;77.10
10314;DHT22;5202;49.138;10.090;2022-09-04T16:45:12;25.50;77.20
10314;DHT22;5202;49.138;10.090;2022-09-04T16:47:48;25.60;77.00
10314;DHT22;5202;49.138;10.090;2022-09-04T16:50:24;25.70;76.80
10314;DHT22;5202;49.138;10.090;2022-09-04T16:53:09;25.70;76.30
10314;DHT22;5202;49.138;10.090;2022-09-04T16:55:46;25.70;75.50
10314;DHT22;5202;49.138;10.090;2022-09-04T16:58:33;25.70;75.10
10314;DHT22;5202;49.138;10.090;2022-09-04T17:01:13;25.70;74.70
10314;DHT22;5202;49.138;10.090;2022-09-04T17:03:53;25.70;74.00
10314;DHT22;5202;49.138;10.090;2022-09-04T17:06:44;25.70;74.00
10314;DHT22;5202;49.138;10.090;2022-09-04T17:09:41;25.60;73.90
10314;DHT22;5202;49.138;10.090;2022-09-04T17:12:20;25.50;73.50
10314;DHT22;5202;49.138;10.090;2022-09-04T17:14:56;25.30;74.10
10314;DHT22;5202;49.138;10.090;2022-09-04T17:17:28;25.20;74.30
10314;DHT22;5202;49.138;10.090;2022-09-04T17:20:02;25.10;75.20
10314;DHT22;5202;49.138;10.090;2022-09-04T17:22:41;25.00;75.40
10314;DHT22;5202;49.138;10.090;2022-09-04T17:25:37;24.90;76.00
10314;DHT22;5202;49.138;10.090;2022-09-04T17:28:39;24.80;76.30
10314;DHT22;5202;49.138;10.090;2022-09-04T17:31:40;24.70;77.10
10314;DHT22;5202;49.138;10.090;2022-09-04T17:34:40;24.60;78.60
10314;DHT22;5202;49.138;10.090;2022-09-04T17:37:39;24.40;79.20
10314;DHT22;5202;49.138;10.090;2022-09-04T17:40:36;24.10;79.80
10314;DHT22;5202;49.138;10.090;2022-09-04T17:43:41;23.90;80.10
10314;DHT22;5202;49.138;10.090;2022-09-04T17:46:34;23.70;80.80
10314;DHT22;5202;49.138;10.090;2022-09-04T17:49:10;23.50;81.60
10314;DHT22;5202;49.138;10.090;2022-09-04T17:51:46;23.30;82.00
10314;DHT22;5202;49.138;10.090;2022-09-04T17:54:25;23.20;82.70
10314;DHT22;5202;49.138;10.090;2022-09-04T17:56:59;23.00;83.10
10314;DHT22;5202;49.138;10.090;2022-09-04T17:59:32;22.80;83.40
10314;DHT22;5202;49.138;10.090;2022-09-04T18:02:15;22.70;83.40
10314;DHT22;5202;49.138;10.090;2022-09-04T18:04:51;22.50;84.20
10314;DHT22;5202;49.138;10.090;2022-09-04T18:07:28;22.30;84.70
10314;DHT22;5202;49.138;10.090;2022-09-04T18:10:23;22.10;85.50
10314;DHT22;5202;49.138;10.090;2022-09-04T18:13:00;22.00;86.40
10314;DHT22;5202;49.138;10.090;2022-09-04T18:15:56;21.80;87.00
10314;DHT22;5202;49.138;10.090;2022-09-04T18:18:39;21.60;87.60
10314;DHT22;5202;49.138;10.090;2022-09-04T18:21:15;21.50;88.00
10314;DHT22;5202;49.138;10.090;2022-09-04T18:23:57;21.40;88.30
10314;DHT22;5202;49.138;10.090;2022-09-04T18:26:36;21.30;88.70
10314;DHT22;5202;49.138;10.090;2022-09-04T18:32:45;21.10;88.90
10314;DHT22;5202;49.138;10.090;2022-09-04T18:35:50;21.00;89.00
10314;DHT22;5202;49.138;10.090;2022-09-04T18:38:46;20.90;89.00
10314;DHT22;5202;49.138;10.090;2022-09-04T18:41:50;20.80;89.20
10314;DHT22;5202;49.138;10.090;2022-09-04T18:44:48;20.70;89.60
10314;DHT22;5202;49.138;10.090;2022-09-04T18:47:45;20.60;89.80
10314;DHT22;5202;49.138;10.090;2022-09-04T18:50:38;20.60;90.00
10314;DHT22;5202;49.138;10.090;2022-09-04T18:53:39;20.50;90.10
10314;DHT22;5202;49.138;10.090;2022-09-04T18:56:14;20.40;90.30
10314;DHT22;5202;49.138;10.090;2022-09-04T18:58:54;20.20;90.30